createdAt,value
2019-01-10T00:00:52.940Z,49.47
2019-01-10T00:03:21.134Z,49.26
2019-01-10T00:05:49.759Z,49.26
2019-01-10T00:08:17.978Z,49.13
2019-01-10T00:10:46.206Z,49.11
2019-01-10T00:13:14.406Z,49.13
2019-01-10T00:15:42.890Z,49.13
2019-01-10T00:18:11.086Z,49.09
2019-01-10T00:20:39.590Z,49.08
2019-01-10T00:23:07.762Z,49.03
2019-01-10T00:25:36.478Z,48.93
2019-01-10T00:28:04.638Z,49.14
2019-01-10T00:30:33.233Z,48.93
2019-01-10T00:33:01.442Z,48.92
2019-01-10T00:35:29.696Z,48.80
2019-01-10T00:37:57.869Z,48.88
2019-01-10T00:40:26.060Z,48.98
2019-01-10T00:42:54.238Z,49.12
2019-01-10T00:45:22.509Z,49.03
2019-01-10T00:47:50.729Z,48.82
2019-01-10T00:50:20.111Z,48.90
2019-01-10T00:52:48.315Z,48.89
2019-01-10T00:55:16.461Z,48.75
2019-01-10T00:57:44.723Z,48.88
2019-01-10T01:00:14.491Z,48.64
2019-01-10T01:02:42.694Z,48.93
2019-01-10T01:05:11.558Z,48.97
2019-01-10T01:07:39.838Z,48.79
2019-01-10T01:10:09.307Z,48.76
2019-01-10T01:12:37.515Z,48.93
2019-01-10T01:15:06.330Z,48.87
2019-01-10T01:17:34.502Z,48.71
2019-01-10T01:20:02.727Z,48.87
2019-01-10T01:22:30.958Z,48.85
2019-01-10T01:24:59.318Z,48.66
2019-01-10T01:27:27.484Z,48.99
2019-01-10T01:29:55.664Z,48.81
2019-01-10T01:32:23.838Z,48.71
2019-01-10T01:34:52.051Z,48.82
2019-01-10T01:37:20.237Z,48.73
2019-01-10T01:39:48.346Z,48.84
2019-01-10T01:42:16.529Z,48.79
2019-01-10T01:44:44.742Z,48.77
2019-01-10T01:47:12.925Z,48.93
2019-01-10T01:49:41.199Z,48.71
2019-01-10T01:52:09.407Z,48.69
2019-01-10T01:54:37.568Z,48.74
2019-01-10T01:57:05.815Z,48.72
2019-01-10T01:59:34.031Z,48.75
2019-01-10T02:02:02.245Z,48.68
2019-01-10T02:04:30.520Z,48.82
2019-01-10T02:06:58.811Z,48.80
2019-01-10T02:09:26.965Z,48.83
2019-01-10T02:11:55.202Z,48.56
2019-01-10T02:14:23.352Z,48.70
2019-01-10T02:16:51.566Z,48.47
2019-01-10T02:19:19.713Z,48.63
2019-01-10T02:21:47.914Z,48.78
2019-01-10T02:24:16.105Z,48.79
2019-01-10T02:26:44.234Z,48.80
2019-01-10T02:29:12.452Z,48.63
2019-01-10T02:31:40.590Z,48.82
2019-01-10T02:34:08.772Z,48.61
2019-01-10T02:36:37.021Z,48.82
2019-01-10T02:39:06.619Z,48.67
2019-01-10T02:41:34.796Z,48.68
2019-01-10T02:44:02.946Z,48.73
2019-01-10T02:46:31.061Z,48.70
2019-01-10T02:49:01.403Z,48.63
2019-01-10T02:51:29.630Z,48.70
2019-01-10T02:53:57.821Z,48.68
2019-01-10T02:56:25.983Z,48.67
2019-01-10T02:58:54.129Z,48.81
2019-01-10T03:01:22.376Z,48.65
2019-01-10T03:03:50.497Z,48.53
2019-01-10T03:06:18.681Z,48.64
2019-01-10T03:08:46.865Z,48.63
2019-01-10T03:11:15.115Z,48.59
2019-01-10T03:13:43.271Z,48.61
2019-01-10T03:16:11.468Z,48.58
2019-01-10T03:18:39.649Z,48.70
2019-01-10T03:21:07.813Z,48.66
2019-01-10T03:23:35.982Z,48.86
2019-01-10T03:26:04.216Z,48.85
2019-01-10T03:28:32.358Z,48.73
2019-01-10T03:31:02.645Z,48.74
2019-01-10T03:33:30.794Z,48.72
2019-01-10T03:35:58.967Z,48.91
2019-01-10T03:38:27.151Z,48.79
2019-01-10T03:40:55.346Z,48.72
2019-01-10T03:43:23.564Z,48.78
2019-01-10T03:45:51.740Z,48.75
2019-01-10T03:48:19.888Z,48.93
2019-01-10T03:50:48.140Z,48.73
2019-01-10T03:53:16.284Z,48.75
2019-01-10T03:55:44.453Z,48.62
2019-01-10T03:58:12.642Z,48.81
2019-01-10T04:00:40.860Z,48.79
2019-01-10T04:03:09.034Z,48.83
2019-01-10T04:05:37.217Z,48.67
2019-01-10T04:08:05.448Z,48.75
2019-01-10T04:10:33.617Z,48.85
2019-01-10T04:13:01.840Z,48.88
2019-01-10T04:15:30.042Z,48.84
2019-01-10T04:17:58.170Z,48.81
2019-01-10T04:20:26.359Z,48.71
2019-01-10T04:22:54.531Z,48.70
2019-01-10T04:25:22.805Z,48.82
2019-01-10T04:27:51.025Z,48.78
2019-01-10T04:30:22.394Z,48.73
2019-01-10T04:32:50.623Z,48.62
2019-01-10T04:35:18.804Z,48.85
2019-01-10T04:37:47.101Z,49.00
2019-01-10T04:40:16.967Z,48.79
2019-01-10T04:42:45.150Z,48.84
2019-01-10T04:45:13.662Z,48.79
2019-01-10T04:47:41.950Z,48.74
2019-01-10T04:50:10.647Z,48.92
2019-01-10T04:52:38.799Z,48.80
2019-01-10T04:55:07.267Z,48.82
2019-01-10T04:57:35.486Z,48.79
2019-01-10T05:00:03.948Z,48.73
2019-01-10T05:02:32.617Z,48.73
2019-01-10T05:05:01.925Z,48.72
2019-01-10T05:07:31.108Z,49.02
2019-01-10T05:09:59.333Z,48.88
2019-01-10T05:12:27.781Z,48.83
2019-01-10T05:14:56.057Z,48.76
2019-01-10T05:17:24.309Z,48.83
2019-01-10T05:19:52.711Z,48.78
2019-01-10T05:22:22.917Z,48.88
2019-01-10T05:24:51.324Z,48.88
2019-01-10T05:27:19.810Z,49.01
2019-01-10T05:29:48.243Z,48.70
2019-01-10T05:32:16.539Z,48.71
2019-01-10T05:34:44.827Z,48.60
2019-01-10T05:37:13.258Z,48.68
2019-01-10T05:39:47.416Z,48.62
2019-01-10T05:42:13.507Z,48.76
2019-01-10T05:44:47.809Z,48.73
2019-01-10T05:47:16.193Z,48.69
2019-01-10T05:49:44.578Z,48.69
2019-01-10T05:52:12.770Z,48.56
2019-01-10T05:54:40.991Z,48.79
2019-01-10T05:57:09.422Z,48.92
2019-01-10T05:59:37.997Z,48.75
2019-01-10T06:02:06.439Z,48.76
2019-01-10T06:04:34.623Z,48.80
2019-01-10T06:07:02.886Z,48.83
2019-01-10T06:09:31.145Z,48.70
2019-01-10T06:11:59.498Z,48.81
2019-01-10T06:14:35.517Z,48.82
2019-01-10T06:16:57.641Z,48.90
2019-01-10T06:19:26.969Z,48.92
2019-01-10T06:21:55.423Z,48.85
2019-01-10T06:24:23.691Z,48.80
2019-01-10T06:26:51.882Z,48.80
2019-01-10T06:29:20.094Z,48.85
2019-01-10T06:31:48.422Z,48.87
2019-01-10T06:34:16.702Z,48.85
2019-01-10T06:36:44.917Z,48.98
2019-01-10T06:39:13.159Z,49.00
2019-01-10T06:41:41.368Z,49.12
2019-01-10T06:44:09.581Z,49.03
2019-01-10T06:46:37.824Z,49.08
2019-01-10T06:49:07.625Z,49.06
2019-01-10T06:51:36.305Z,49.17
2019-01-10T06:54:04.561Z,48.98
2019-01-10T06:56:32.797Z,48.91
2019-01-10T06:59:01.028Z,48.97
2019-01-10T07:01:29.249Z,48.98
2019-01-10T07:03:57.537Z,48.85
2019-01-10T07:06:25.746Z,48.92
2019-01-10T07:08:53.949Z,48.76
2019-01-10T07:11:22.196Z,48.68
2019-01-10T07:13:50.354Z,48.65
2019-01-10T07:16:18.512Z,48.74
2019-01-10T07:18:46.737Z,48.82
2019-01-10T07:21:14.854Z,48.80
2019-01-10T07:23:46.414Z,48.75
2019-01-10T07:26:14.626Z,48.76
2019-01-10T07:28:42.870Z,48.76
2019-01-10T07:31:30.242Z,48.71
2019-01-10T07:34:01.982Z,48.69
2019-01-10T07:36:30.104Z,48.54
2019-01-10T07:38:58.261Z,48.49
2019-01-10T07:41:26.361Z,48.38
2019-01-10T07:43:54.606Z,48.48
2019-01-10T07:46:22.733Z,48.45
2019-01-10T07:48:50.851Z,48.61
2019-01-10T07:51:19.012Z,48.60
2019-01-10T07:53:47.126Z,48.48
2019-01-10T07:56:15.299Z,48.43
2019-01-10T07:58:43.418Z,48.61
2019-01-10T08:01:11.559Z,48.26
2019-01-10T08:03:39.692Z,48.22
2019-01-10T08:06:07.823Z,48.24
2019-01-10T08:08:35.970Z,48.00
2019-01-10T08:11:04.099Z,48.03
2019-01-10T08:13:32.214Z,48.12
2019-01-10T08:16:00.350Z,48.01
2019-01-10T08:18:28.465Z,47.92
2019-01-10T08:20:56.609Z,47.76
2019-01-10T08:23:24.737Z,47.89
2019-01-10T08:25:52.874Z,47.80
2019-01-10T08:28:21.013Z,47.90
2019-01-10T08:30:49.138Z,47.67
2019-01-10T08:33:17.367Z,47.45
2019-01-10T08:35:45.792Z,47.63
2019-01-10T08:38:13.909Z,47.59
2019-01-10T08:40:42.037Z,47.40
2019-01-10T08:43:11.778Z,47.51
2019-01-10T08:45:40.009Z,47.49
2019-01-10T08:48:09.256Z,47.45
2019-01-10T08:50:37.370Z,47.37
2019-01-10T08:53:05.506Z,47.37
2019-01-10T08:55:33.635Z,47.41
2019-01-10T08:58:01.796Z,47.30
2019-01-10T09:00:29.930Z,47.11
2019-01-10T09:02:58.066Z,47.18
2019-01-10T09:05:26.234Z,47.20
2019-01-10T09:07:54.318Z,47.11
2019-01-10T09:10:29.733Z,47.16
2019-01-10T09:12:57.854Z,47.08
2019-01-10T09:15:34.420Z,47.14
2019-01-10T09:17:55.811Z,47.11
2019-01-10T09:20:23.946Z,46.93
2019-01-10T09:22:52.121Z,47.02
2019-01-10T09:25:20.249Z,47.06
2019-01-10T09:27:48.381Z,47.13
2019-01-10T09:30:17.534Z,47.13
2019-01-10T09:32:45.650Z,46.96
2019-01-10T09:35:13.802Z,47.08
2019-01-10T09:37:41.938Z,46.99
2019-01-10T09:40:11.355Z,47.09
2019-01-10T09:42:39.474Z,47.02
2019-01-10T09:45:08.053Z,47.14
2019-01-10T09:47:37.134Z,47.00
2019-01-10T09:50:05.881Z,47.17
2019-01-10T09:52:34.018Z,47.42
2019-01-10T09:55:02.133Z,47.21
2019-01-10T09:57:30.257Z,47.39
2019-01-10T09:59:58.397Z,47.16
2019-01-10T10:02:26.521Z,47.37
2019-01-10T10:04:54.707Z,47.25
2019-01-10T10:07:22.906Z,47.27
2019-01-10T10:09:51.065Z,47.25
2019-01-10T10:12:19.218Z,47.29
2019-01-10T10:14:47.330Z,47.25
2019-01-10T10:17:15.477Z,47.22
2019-01-10T10:19:43.625Z,47.43
2019-01-10T10:22:11.812Z,47.34
2019-01-10T10:24:39.939Z,47.31
2019-01-10T10:27:08.058Z,47.44
2019-01-10T10:29:36.182Z,47.41
2019-01-10T10:32:04.330Z,47.26
2019-01-10T10:34:32.464Z,47.22
2019-01-10T10:37:00.670Z,47.15
2019-01-10T10:39:28.804Z,47.29
2019-01-10T10:41:58.423Z,47.25
2019-01-10T10:44:26.598Z,47.19
2019-01-10T10:46:54.755Z,47.35
2019-01-10T10:49:22.986Z,47.24
2019-01-10T10:51:51.136Z,47.35
2019-01-10T10:54:19.310Z,47.21
2019-01-10T10:56:47.607Z,46.83
2019-01-10T10:59:15.858Z,47.15
2019-01-10T11:01:44.257Z,47.03
2019-01-10T11:04:12.378Z,46.95
2019-01-10T11:06:40.538Z,47.06
2019-01-10T11:09:09.687Z,47.09
2019-01-10T11:11:37.936Z,46.85
2019-01-10T11:14:06.117Z,47.17
2019-01-10T11:16:34.294Z,46.87
2019-01-10T11:19:02.565Z,46.89
2019-01-10T11:21:30.801Z,46.93
2019-01-10T11:23:58.993Z,46.89
2019-01-10T11:26:27.155Z,46.92
2019-01-10T11:28:55.378Z,46.93
2019-01-10T11:31:23.642Z,46.98
2019-01-10T11:33:51.805Z,47.04
2019-01-10T11:36:20.091Z,46.97
2019-01-10T11:38:48.241Z,47.17
2019-01-10T11:41:16.385Z,47.06
2019-01-10T11:43:44.589Z,47.12
2019-01-10T11:46:19.575Z,46.96
2019-01-10T11:48:43.171Z,47.04
2019-01-10T11:51:11.453Z,47.17
2019-01-10T11:53:39.626Z,47.24
2019-01-10T11:56:07.802Z,47.22
2019-01-10T11:58:35.996Z,47.34
2019-01-10T12:01:04.226Z,47.33
2019-01-10T12:03:32.428Z,47.32
2019-01-10T12:06:00.607Z,47.12
2019-01-10T12:08:28.809Z,47.22
2019-01-10T12:10:57.026Z,47.11
2019-01-10T12:13:25.196Z,47.24
2019-01-10T12:15:53.349Z,47.18
2019-01-10T12:18:21.548Z,47.31
2019-01-10T12:20:49.747Z,47.34
2019-01-10T12:23:18.167Z,47.33
2019-01-10T12:25:46.457Z,47.35
2019-01-10T12:28:14.594Z,47.28
2019-01-10T12:30:42.770Z,47.32
2019-01-10T12:33:10.908Z,47.28
2019-01-10T12:35:39.077Z,47.38
2019-01-10T12:38:07.258Z,47.35
2019-01-10T12:40:35.414Z,47.26
2019-01-10T12:43:03.601Z,47.30
2019-01-10T12:45:31.787Z,47.22
2019-01-10T12:48:01.652Z,47.36
2019-01-10T12:50:31.022Z,47.35
2019-01-10T12:52:59.486Z,47.37
2019-01-10T12:55:29.179Z,47.29
2019-01-10T12:57:57.409Z,47.48
2019-01-10T13:00:28.327Z,47.36
2019-01-10T13:02:56.486Z,47.33
2019-01-10T13:05:24.831Z,47.44
2019-01-10T13:07:53.082Z,47.57
2019-01-10T13:10:21.281Z,47.59
2019-01-10T13:12:49.611Z,47.64
2019-01-10T13:15:21.910Z,47.59
2019-01-10T13:17:50.079Z,47.71
2019-01-10T13:20:18.217Z,47.64
2019-01-10T13:22:46.399Z,47.91
2019-01-10T13:25:15.622Z,47.86
2019-01-10T13:27:43.877Z,47.60
2019-01-10T13:30:13.702Z,47.86
2019-01-10T13:32:41.846Z,47.78
2019-01-10T13:35:10.045Z,48.10
2019-01-10T13:37:38.197Z,47.82
2019-01-10T13:40:06.329Z,47.82
2019-01-10T13:42:34.550Z,47.79
2019-01-10T13:45:02.713Z,47.68
2019-01-10T13:47:30.986Z,47.78
2019-01-10T13:49:59.150Z,47.80
2019-01-10T13:52:27.305Z,47.90
2019-01-10T13:54:55.497Z,47.98
2019-01-10T13:57:25.732Z,47.93
2019-01-10T13:59:53.862Z,47.96
2019-01-10T14:02:22.005Z,47.78
2019-01-10T14:04:50.189Z,47.95
2019-01-10T14:07:18.305Z,47.93
2019-01-10T14:09:46.474Z,47.91
2019-01-10T14:12:14.595Z,47.91
2019-01-10T14:14:42.805Z,48.05
2019-01-10T14:17:10.958Z,48.10
2019-01-10T14:19:39.099Z,47.96
2019-01-10T14:22:07.237Z,48.10
2019-01-10T14:24:35.354Z,48.09
2019-01-10T14:27:03.479Z,48.24
2019-01-10T14:29:31.616Z,48.04
2019-01-10T14:31:59.743Z,48.04
2019-01-10T14:34:27.859Z,48.26
2019-01-10T14:36:55.990Z,47.97
2019-01-10T14:39:24.395Z,47.99
2019-01-10T14:41:52.547Z,47.82
2019-01-10T14:44:20.661Z,47.85
2019-01-10T14:46:48.794Z,47.83
2019-01-10T14:49:17.361Z,47.78
2019-01-10T14:51:45.502Z,47.87
2019-01-10T14:54:13.750Z,47.76
2019-01-10T14:56:41.897Z,47.86
2019-01-10T14:59:10.020Z,47.88
2019-01-10T15:01:38.137Z,48.05
2019-01-10T15:04:06.266Z,47.93
2019-01-10T15:06:34.418Z,47.92
2019-01-10T15:09:02.597Z,47.95
2019-01-10T15:11:30.783Z,47.99
2019-01-10T15:13:58.926Z,48.06
2019-01-10T15:16:27.062Z,48.06
2019-01-10T15:18:55.233Z,47.86
2019-01-10T15:21:23.442Z,47.94
2019-01-10T15:23:51.554Z,47.81
2019-01-10T15:26:19.676Z,47.81
2019-01-10T15:28:47.790Z,47.83
2019-01-10T15:31:15.939Z,47.82
2019-01-10T15:33:44.054Z,47.79
2019-01-10T15:36:12.655Z,47.95
2019-01-10T15:38:40.812Z,47.75
2019-01-10T15:41:09.038Z,47.90
2019-01-10T15:43:37.161Z,47.83
2019-01-10T15:46:05.281Z,47.86
2019-01-10T15:48:33.406Z,47.79
2019-01-10T15:51:01.553Z,47.79
2019-01-10T15:53:29.676Z,47.80
2019-01-10T15:55:57.785Z,47.78
2019-01-10T15:58:25.922Z,47.90
2019-01-10T16:00:54.059Z,47.75
2019-01-10T16:03:22.186Z,47.65
2019-01-10T16:05:50.293Z,47.89
2019-01-10T16:08:18.426Z,47.77
2019-01-10T16:10:46.621Z,47.67
2019-01-10T16:13:14.741Z,47.62
2019-01-10T16:15:42.899Z,47.66
2019-01-10T16:18:11.014Z,47.54
2019-01-10T16:20:39.145Z,47.58
2019-01-10T16:23:07.266Z,47.51
2019-01-10T16:25:35.394Z,47.58
2019-01-10T16:28:03.534Z,47.55
2019-01-10T16:30:31.804Z,47.38
2019-01-10T16:33:00.062Z,47.40
2019-01-10T16:35:28.150Z,47.36
2019-01-10T16:37:56.254Z,47.41
2019-01-10T16:40:24.411Z,47.18
2019-01-10T16:42:52.529Z,47.11
2019-01-10T16:45:21.798Z,47.16
2019-01-10T16:47:49.938Z,47.30
2019-01-10T16:50:18.063Z,47.09
2019-01-10T16:52:46.187Z,47.26
2019-01-10T16:55:14.356Z,47.11
2019-01-10T16:57:42.569Z,47.15
2019-01-10T17:00:16.068Z,47.25
2019-01-10T17:02:44.186Z,47.14
2019-01-10T17:05:12.325Z,47.17
2019-01-10T17:07:40.462Z,47.27
2019-01-10T17:10:08.985Z,47.06
2019-01-10T17:12:37.106Z,47.12
2019-01-10T17:15:05.742Z,47.37
2019-01-10T17:17:37.705Z,47.20
2019-01-10T17:20:03.653Z,47.10
2019-01-10T17:22:31.831Z,47.32
2019-01-10T17:24:59.953Z,47.08
2019-01-10T17:27:28.074Z,47.23
2019-01-10T17:29:56.189Z,47.13
2019-01-10T17:32:24.316Z,47.13
2019-01-10T17:34:52.463Z,47.06
2019-01-10T17:37:20.590Z,47.15
2019-01-10T17:39:48.702Z,47.17
2019-01-10T17:42:16.854Z,47.10
2019-01-10T17:44:44.983Z,47.16
2019-01-10T17:47:13.092Z,47.12
2019-01-10T17:49:41.219Z,47.13
2019-01-10T17:52:09.342Z,47.07
2019-01-10T17:54:37.721Z,46.87
2019-01-10T17:57:05.841Z,46.96
2019-01-10T17:59:34.090Z,46.96
2019-01-10T18:02:02.245Z,46.92
2019-01-10T18:04:30.425Z,46.86
2019-01-10T18:06:58.521Z,46.99
2019-01-10T18:09:26.654Z,47.06
2019-01-10T18:11:54.802Z,47.02
2019-01-10T18:14:22.926Z,47.07
2019-01-10T18:16:51.200Z,47.13
2019-01-10T18:19:19.326Z,47.00
2019-01-10T18:21:47.465Z,46.85
2019-01-10T18:24:15.602Z,46.96
2019-01-10T18:26:43.811Z,47.07
2019-01-10T18:29:11.954Z,46.99
2019-01-10T18:31:40.066Z,47.06
2019-01-10T18:34:08.186Z,46.98
2019-01-10T18:36:36.314Z,46.97
2019-01-10T18:39:06.320Z,47.08
2019-01-10T18:41:34.439Z,46.85
2019-01-10T18:44:02.566Z,46.87
2019-01-10T18:46:30.702Z,46.79
2019-01-10T18:48:58.813Z,46.88
2019-01-10T18:51:26.971Z,46.82
2019-01-10T18:53:55.085Z,46.87
2019-01-10T18:56:23.293Z,46.87
2019-01-10T18:58:51.373Z,46.96
2019-01-10T19:01:19.511Z,47.08
2019-01-10T19:03:47.649Z,47.04
2019-01-10T19:06:15.766Z,47.09
2019-01-10T19:08:43.911Z,47.09
2019-01-10T19:11:12.034Z,47.04
2019-01-10T19:13:40.154Z,46.84
2019-01-10T19:16:08.274Z,46.89
2019-01-10T19:18:36.551Z,46.86
2019-01-10T19:21:04.645Z,46.82
2019-01-10T19:23:32.761Z,46.94
2019-01-10T19:26:00.906Z,47.04
2019-01-10T19:28:29.036Z,46.89
2019-01-10T19:30:57.226Z,46.90
2019-01-10T19:33:25.351Z,47.04
2019-01-10T19:35:53.462Z,47.01
2019-01-10T19:38:21.627Z,47.03
2019-01-10T19:40:49.745Z,46.99
2019-01-10T19:43:17.867Z,46.92
2019-01-10T19:45:45.986Z,46.94
2019-01-10T19:48:14.110Z,47.06
2019-01-10T19:50:42.230Z,46.94
2019-01-10T19:53:10.361Z,47.10
2019-01-10T19:55:38.485Z,46.97
2019-01-10T19:58:06.597Z,46.96
2019-01-10T20:00:39.123Z,47.06
2019-01-10T20:03:07.249Z,46.94
2019-01-10T20:05:35.381Z,46.84
2019-01-10T20:08:03.630Z,46.88
2019-01-10T20:10:31.794Z,46.85
2019-01-10T20:12:59.905Z,46.95
2019-01-10T20:15:28.026Z,47.03
2019-01-10T20:17:56.878Z,47.02
2019-01-10T20:20:43.313Z,46.97
2019-01-10T20:23:12.657Z,46.95
2019-01-10T20:25:41.301Z,47.05
2019-01-10T20:28:09.508Z,46.87
2019-01-10T20:30:37.626Z,46.95
2019-01-10T20:33:05.758Z,46.93
2019-01-10T20:35:33.877Z,46.96
2019-01-10T20:38:02.013Z,46.82
2019-01-10T20:40:30.144Z,46.72
2019-01-10T20:42:58.279Z,46.87
2019-01-10T20:45:26.385Z,46.80
2019-01-10T20:47:54.519Z,46.66
2019-01-10T20:50:22.635Z,46.81
2019-01-10T20:52:50.811Z,46.80
2019-01-10T20:55:18.939Z,46.80
2019-01-10T20:57:47.061Z,46.88
2019-01-10T21:00:16.426Z,46.70
2019-01-10T21:02:44.546Z,46.71
2019-01-10T21:05:12.730Z,46.64
2019-01-10T21:07:40.954Z,46.75
2019-01-10T21:10:10.021Z,46.79
2019-01-10T21:12:38.174Z,46.91
2019-01-10T21:15:07.189Z,46.77
2019-01-10T21:17:35.310Z,46.84
2019-01-10T21:20:03.442Z,46.74
2019-01-10T21:22:31.606Z,46.79
2019-01-10T21:24:59.755Z,46.79
2019-01-10T21:27:27.868Z,46.66
2019-01-10T21:29:56.003Z,46.76
2019-01-10T21:32:24.181Z,46.55
2019-01-10T21:34:52.338Z,46.60
2019-01-10T21:37:20.446Z,46.70
2019-01-10T21:39:48.571Z,46.75
2019-01-10T21:42:16.693Z,46.74
2019-01-10T21:44:44.805Z,46.87
2019-01-10T21:47:12.953Z,46.75
2019-01-10T21:49:41.082Z,46.65
2019-01-10T21:52:09.198Z,46.77
2019-01-10T21:54:39.138Z,46.61
2019-01-10T21:57:07.251Z,46.61
2019-01-10T21:59:35.398Z,46.59
2019-01-10T22:02:03.538Z,46.55
2019-01-10T22:04:31.667Z,46.68
2019-01-10T22:06:59.845Z,46.61
2019-01-10T22:09:28.030Z,46.62
2019-01-10T22:11:56.146Z,46.60
2019-01-10T22:14:24.266Z,46.68
2019-01-10T22:16:52.417Z,46.57
2019-01-10T22:19:20.538Z,46.62
2019-01-10T22:21:48.665Z,46.51
2019-01-10T22:24:16.809Z,46.58
2019-01-10T22:26:44.921Z,46.65
2019-01-10T22:29:13.150Z,46.72
2019-01-10T22:31:41.268Z,46.73
2019-01-10T22:34:09.410Z,46.68
2019-01-10T22:36:37.643Z,46.58
2019-01-10T22:39:07.470Z,46.68
2019-01-10T22:41:35.631Z,46.54
2019-01-10T22:44:03.736Z,46.67
2019-01-10T22:46:31.862Z,46.62
2019-01-10T22:48:59.979Z,46.70
2019-01-10T22:51:28.099Z,46.62
2019-01-10T22:53:56.218Z,46.68
2019-01-10T22:56:24.342Z,46.63
2019-01-10T22:58:52.481Z,46.70
2019-01-10T23:01:45.401Z,46.50
2019-01-10T23:04:14.631Z,46.66
2019-01-10T23:06:42.778Z,46.55
2019-01-10T23:09:10.897Z,46.45
2019-01-10T23:11:39.033Z,46.58
2019-01-10T23:14:07.450Z,46.35
2019-01-10T23:16:36.081Z,46.32
2019-01-10T23:19:04.818Z,46.33
2019-01-10T23:21:33.874Z,46.44
2019-01-10T23:24:12.006Z,46.42
2019-01-10T23:26:41.767Z,46.28
2019-01-10T23:29:09.947Z,46.33
2019-01-10T23:31:38.065Z,46.29
2019-01-10T23:34:10.314Z,46.28
2019-01-10T23:36:38.485Z,46.26
2019-01-10T23:39:19.785Z,46.48
2019-01-10T23:41:48.164Z,46.37
2019-01-10T23:44:16.282Z,46.37
2019-01-10T23:46:44.427Z,46.34
2019-01-10T23:49:12.550Z,46.21
2019-01-10T23:51:40.712Z,46.25
2019-01-10T23:54:08.857Z,46.27
2019-01-10T23:56:36.979Z,46.21
2019-01-10T23:59:05.096Z,46.25
